Time;durP1;ratioP1;P1;durP2;ratioP2;P2;SDS_P1;SDS_P2;PMS_P1;PMS_P2;Temp;Humidity;BMP_temperature;BMP_pressure;BME280_temperature;BME280_humidity;BME280_pressure;Samples;Min_cycle;Max_cycle;Signal;HPM_P1;HPM_P2
2021/01/16 00:01:39;;;;;;;5.85;5.20;;;14.40;48.20;;;;;;6193592;23;20017;-86
2021/01/16 00:04:31;;;;;;;5.65;5.05;;;14.40;48.20;;;;;;6216036;23;20043;-86
2021/01/16 00:07:22;;;;;;;5.28;4.43;;;14.40;48.10;;;;;;6193024;23;20012;-88
2021/01/16 00:10:20;;;;;;;5.75;4.85;;;14.30;48.20;;;;;;6191961;23;20017;-86
2021/01/16 00:13:24;;;;;;;5.55;4.88;;;14.40;48.20;;;;;;6190834;23;20020;-87
2021/01/16 00:16:21;;;;;;;5.53;4.85;;;14.40;48.20;;;;;;6193520;23;20016;-87
2021/01/16 00:19:11;;;;;;;5.75;4.95;;;14.30;48.10;;;;;;6188328;23;20009;-86
2021/01/16 00:21:50;;;;;;;5.55;4.57;;;14.30;48.00;;;;;;6191781;23;20028;-86
2021/01/16 00:28:34;;;;;;;5.57;4.35;;;14.30;48.30;;;;;;6217954;23;20013;-86
2021/01/16 00:31:15;;;;;;;5.40;4.25;;;14.30;48.10;;;;;;6168033;23;20087;-87
2021/01/16 00:34:05;;;;;;;;;;;;;;;;;;;;;
2021/01/16 00:37:00;;;;;;;6.82;4.45;;;14.30;48.10;;;;;;6217846;23;20017;-87
2021/01/16 00:39:54;;;;;;;5.13;4.40;;;14.30;48.10;;;;;;6195934;23;20013;-86
2021/01/16 00:42:50;;;;;;;5.68;4.47;;;14.30;48.10;;;;;;6192804;23;20293;-87
2021/01/16 00:45:44;;;;;;;5.15;4.55;;;14.30;48.10;;;;;;6216792;23;20013;-87
2021/01/16 00:48:22;;;;;;;5.78;4.30;;;14.30;48.10;;;;;;6215994;23;20028;-86
2021/01/16 00:51:13;;;;;;;5.03;4.38;;;14.30;48.00;;;;;;6192375;23;20422;-86
2021/01/16 00:53:54;;;;;;;5.32;4.15;;;14.30;48.00;;;;;;6191982;23;20263;-87
2021/01/16 00:56:47;;;;;;;5.25;4.22;;;14.30;48.00;;;;;;6194660;23;20013;-86
2021/01/16 00:59:43;;;;;;;6.07;4.13;;;14.30;48.00;;;;;;6216485;23;20012;-86
2021/01/16 01:02:53;;;;;;;6.75;4.72;;;14.30;48.00;;;;;;6191411;23;20031;-86
2021/01/16 01:06:12;;;;;;;5.88;4.60;;;14.30;47.90;;;;;;6193080;23;20012;-86
2021/01/16 01:09:02;;;;;;;4.15;3.72;;;14.30;48.00;;;;;;6192904;23;20027;-86
2021/01/16 01:11:52;;;;;;;5.30;4.30;;;14.20;48.00;;;;;;6192811;23;20043;-86
2021/01/16 01:14:29;;;;;;;5.10;3.60;;;14.40;48.00;;;;;;6190346;23;20013;-86
2021/01/16 01:17:23;;;;;;;4.35;3.85;;;14.20;48.00;;;;;;6216563;23;20079;-88
2021/01/16 01:20:19;;;;;;;4.53;3.85;;;14.30;48.00;;;;;;6216195;23;20079;-86
2021/01/16 01:23:13;;;;;;;4.53;3.65;;;14.30;48.10;;;;;;6189648;23;20292;-87
2021/01/16 01:26:04;;;;;;;4.45;3.40;;;14.30;48.10;;;;;;6196979;23;20098;-87
2021/01/16 01:29:29;;;;;;;3.55;3.22;;;14.30;48.10;;;;;;6223823;23;20016;-86
2021/01/16 01:32:26;;;;;;;4.40;3.55;;;14.30;48.10;;;;;;6192426;23;20104;-88
2021/01/16 01:35:25;;;;;;;3.85;3.03;;;14.30;48.10;;;;;;6225525;23;20008;-86
2021/01/16 01:38:16;;;;;;;3.92;3.38;;;14.20;48.20;;;;;;6193606;23;20016;-87
2021/01/16 01:41:14;;;;;;;4.38;3.40;;;14.20;48.10;;;;;;6194348;23;20020;-87
2021/01/16 01:44:36;;;;;;;3.50;2.97;;;14.30;48.20;;;;;;6226308;23;20011;-87
2021/01/16 01:47:27;;;;;;;3.75;2.90;;;14.30;48.30;;;;;;6198288;23;20012;-86
2021/01/16 01:50:34;;;;;;;3.30;2.70;;;14.30;48.20;;;;;;6198637;23;20353;-87
2021/01/16 01:53:08;;;;;;;3.47;2.75;;;14.20;48.10;;;;;;6220798;23;20020;-87
2021/01/16 01:55:54;;;;;;;2.90;2.47;;;14.30;48.70;;;;;;6197266;23;20031;-87
2021/01/16 01:58:43;;;;;;;5.13;2.53;;;14.30;48.00;;;;;;6200056;23;20085;-88
2021/01/16 02:01:43;;;;;;;4.28;2.80;;;14.30;48.10;;;;;;6199143;23;20082;-87
2021/01/16 02:04:48;;;;;;;3.47;2.47;;;14.30;48.00;;;;;;6227618;23;20082;-87
2021/01/16 02:07:57;;;;;;;3.40;2.78;;;14.30;48.00;;;;;;6198004;23;20475;-87
2021/01/16 02:11:06;;;;;;;3.13;2.67;;;14.30;47.90;;;;;;6155356;23;20016;-87
2021/01/16 02:13:54;;;;;;;3.63;2.70;;;14.30;47.80;;;;;;6198117;23;20016;-88
2021/01/16 02:16:47;;;;;;;2.85;2.28;;;14.30;47.80;;;;;;6197483;23;20421;-87
2021/01/16 02:19:54;;;;;;;3.75;2.80;;;14.30;47.70;;;;;;6199571;23;20452;-86
2021/01/16 02:23:19;;;;;;;4.00;2.95;;;14.20;47.70;;;;;;6226775;23;20020;-87
2021/01/16 02:26:59;;;;;;;3.35;2.50;;;14.20;47.70;;;;;;6189064;23;20422;-87
2021/01/16 02:29:52;;;;;;;3.92;2.95;;;14.20;47.70;;;;;;6217649;23;20040;-87
2021/01/16 02:33:05;;;;;;;3.97;2.83;;;14.20;47.70;;;;;;6209855;23;20099;-87
2021/01/16 02:36:21;;;;;;;3.20;2.60;;;14.20;47.60;;;;;;6189957;23;20017;-87
2021/01/16 02:40:04;;;;;;;2.80;2.50;;;14.20;47.50;;;;;;6194771;23;20013;-86
2021/01/16 02:43:16;;;;;;;3.53;2.72;;;14.20;47.50;;;;;;6216283;23;20009;-87
2021/01/16 02:46:25;;;;;;;2.92;2.70;;;14.20;47.50;;;;;;6127474;23;20014;-87
2021/01/16 02:49:46;;;;;;;3.20;2.50;;;14.20;47.50;;;;;;6127087;23;20022;-87
2021/01/16 02:52:39;;;;;;;3.45;2.67;;;14.20;47.40;;;;;;6218383;23;20023;-87
2021/01/16 02:55:37;;;;;;;2.53;2.10;;;14.20;47.30;;;;;;6194060;23;20083;-86
2021/01/16 02:58:27;;;;;;;2.70;2.25;;;14.20;47.30;;;;;;6189867;23;20095;-87
2021/01/16 03:01:55;;;;;;;3.75;2.33;;;14.20;47.30;;;;;;6210886;23;20087;-87
2021/01/16 03:04:42;;;;;;;2.95;2.20;;;14.20;47.20;;;;;;6217276;23;20017;-87
2021/01/16 03:07:44;;;;;;;2.63;2.13;;;14.20;47.20;;;;;;6217100;23;20020;-87
2021/01/16 03:10:40;;;;;;;2.38;2.17;;;14.20;47.20;;;;;;6193386;23;20008;-86
2021/01/16 03:17:35;;;;;;;;;;;;;;;;;;;;;
2021/01/16 03:20:17;;;;;;;2.70;2.10;;;14.20;47.20;;;;;;6216569;23;20016;-87
2021/01/16 03:23:35;;;;;;;;;;;;;;;;;;;;;
2021/01/16 03:26:41;;;;;;;3.00;2.00;;;14.20;47.10;;;;;;6239959;23;20012;-87
2021/01/16 03:29:45;;;;;;;3.35;2.22;;;14.30;47.10;;;;;;6223792;23;20118;-87
2021/01/16 03:32:28;;;;;;;2.30;2.00;;;14.20;47.00;;;;;;6197542;23;20012;-87
2021/01/16 03:35:37;;;;;;;;;;;;;;;;;;;;;
2021/01/16 03:38:34;;;;;;;4.00;2.42;;;14.10;46.80;;;;;;6247951;23;20008;-86
2021/01/16 03:41:19;;;;;;;2.35;1.90;;;14.10;46.80;;;;;;6222780;23;20095;-87
2021/01/16 03:44:07;;;;;;;2.35;1.95;;;14.10;46.70;;;;;;6197794;23;20087;-87
2021/01/16 03:46:51;;;;;;;2.65;1.92;;;14.10;46.70;;;;;;6197422;23;20019;-87
2021/01/16 03:49:47;;;;;;;2.58;1.75;;;14.20;46.80;;;;;;6196925;23;20028;-87
2021/01/16 03:52:38;;;;;;;2.78;1.92;;;14.10;46.70;;;;;;6197831;23;20016;-87
2021/01/16 03:55:46;;;;;;;1.70;1.60;;;14.10;46.60;;;;;;6225763;23;20012;-86
2021/01/16 03:58:50;;;;;;;;;;;;;;;;;;;;;
2021/01/16 04:01:30;;;;;;;2.05;1.52;;;14.20;46.70;;;;;;6220849;23;20008;-86
2021/01/16 04:04:13;;;;;;;2.25;1.90;;;14.20;46.80;;;;;;6197465;23;20012;-87
2021/01/16 04:07:00;;;;;;;2.00;1.63;;;14.10;46.60;;;;;;6216363;23;20009;-87
2021/01/16 04:09:43;;;;;;;2.58;1.90;;;14.20;46.60;;;;;;6197312;23;20042;-87
2021/01/16 04:12:41;;;;;;;2.22;1.70;;;14.20;46.60;;;;;;6224893;23;20355;-87
2021/01/16 04:15:34;;;;;;;3.13;1.90;;;14.20;47.30;;;;;;6223657;23;20359;-86
2021/01/16 04:18:15;;;;;;;;;;;;;;;;;;;;;
2021/01/16 04:24:35;;;;;;;2.78;2.00;;;14.20;46.50;;;;;;6247935;23;20008;-87
2021/01/16 04:27:28;;;;;;;2.00;1.67;;;14.10;46.50;;;;;;6108097;23;20026;-87
2021/01/16 04:30:12;;;;;;;1.98;1.70;;;14.10;46.40;;;;;;6194074;23;20012;-87
2021/01/16 04:33:09;;;;;;;2.10;1.55;;;14.20;46.30;;;;;;6218579;23;20431;-88
2021/01/16 04:35:51;;;;;;;2.67;1.65;;;14.20;46.30;;;;;;6181819;23;20008;-88
2021/01/16 04:38:51;;;;;;;2.00;1.50;;;14.10;46.10;;;;;;6201590;23;20012;-87
2021/01/16 04:41:40;;;;;;;2.35;1.40;;;14.20;46.00;;;;;;6200191;23;20008;-87
2021/01/16 04:44:45;;;;;;;1.75;1.35;;;14.10;46.00;;;;;;6223223;23;20448;-87
2021/01/16 04:47:32;;;;;;;1.52;1.27;;;14.20;46.00;;;;;;6222526;23;20034;-87
2021/01/16 04:50:27;;;;;;;2.20;1.52;;;14.10;46.10;;;;;;6196616;23;20066;-88
2021/01/16 04:53:31;;;;;;;;;;;;;;;;;;;;;
2021/01/16 04:56:00;;;;;;;2.15;1.38;;;14.20;46.10;;;;;;6221864;23;20020;-87
2021/01/16 04:59:18;;;;;;;2.38;1.88;;;14.20;46.10;;;;;;6197369;23;20012;-87
2021/01/16 05:02:23;;;;;;;;;;;;;;;;;;;;;
2021/01/16 05:05:01;;;;;;;3.65;2.60;;;14.10;46.10;;;;;;6220428;23;20039;-87
2021/01/16 05:07:40;;;;;;;3.03;2.70;;;14.10;46.10;;;;;;6199812;23;20016;-87
2021/01/16 05:11:15;;;;;;;23.95;4.25;;;14.20;46.50;;;;;;6197678;23;20023;-88
2021/01/16 05:14:35;;;;;;;4.82;2.30;;;14.20;46.90;;;;;;6213654;23;20422;-88
2021/01/16 05:17:57;;;;;;;4.90;2.40;;;14.20;47.30;;;;;;6223736;23;20012;-87
2021/01/16 05:20:32;;;;;;;7.05;2.50;;;14.30;47.60;;;;;;6260663;23;20004;-87
2021/01/16 05:23:55;;;;;;;3.95;2.55;;;14.40;48.10;;;;;;6228626;23;20070;-87
2021/01/16 05:26:42;;;;;;;8.35;2.72;;;14.50;48.70;;;;;;6248619;23;20023;-89
2021/01/16 05:30:26;;;;;;;;;;;;;;;;;;;;;
2021/01/16 05:33:19;;;;;;;6.90;3.03;;;14.70;48.80;;;;;;6042042;23;20055;-85
2021/01/16 05:35:45;;;;;;;6.03;3.25;;;14.70;49.10;;;;;;6040809;23;20029;-81
2021/01/16 05:38:26;;;;;;;8.32;3.85;;;14.80;49.50;;;;;;6041028;23;20019;-84
2021/01/16 05:40:55;;;;;;;8.68;2.47;;;14.90;50.00;;;;;;6117643;23;20115;-82
2021/01/16 05:43:21;;;;;;;12.02;2.97;;;15.00;50.00;;;;;;6229439;23;20078;-80
2021/01/16 05:45:57;;;;;;;8.50;2.78;;;15.00;50.10;;;;;;6219309;23;20091;-82
2021/01/16 05:48:25;;;;;;;11.00;3.05;;;15.10;49.90;;;;;;6229148;23;20410;-82
2021/01/16 05:50:51;;;;;;;10.43;3.30;;;15.20;50.40;;;;;;6228416;23;20016;-82
2021/01/16 05:53:17;;;;;;;10.38;2.78;;;15.20;50.70;;;;;;6229339;23;20008;-81
2021/01/16 05:55:43;;;;;;;10.85;3.47;;;15.30;51.10;;;;;;6219363;23;20012;-82
2021/01/16 05:58:09;;;;;;;12.98;2.70;;;15.40;51.20;;;;;;6227534;23;20016;-81
2021/01/16 06:00:38;;;;;;;8.10;3.33;;;15.40;51.50;;;;;;6227875;23;20012;-81
2021/01/16 06:03:10;;;;;;;13.40;3.83;;;15.50;51.70;;;;;;6228062;23;20274;-83
2021/01/16 06:05:36;;;;;;;9.05;4.00;;;15.50;51.80;;;;;;6218044;23;20019;-84
2021/01/16 06:08:03;;;;;;;6.22;3.00;;;15.50;51.80;;;;;;6218105;23;20083;-83
2021/01/16 06:10:36;;;;;;;11.30;3.83;;;15.60;51.80;;;;;;6228785;23;20008;-84
2021/01/16 06:17:45;;;;;;;;;;;;;;;;;;;;;
2021/01/16 06:20:52;;;;;;;7.38;3.00;;;15.70;51.70;;;;;;6186352;23;20298;-85
2021/01/16 06:23:21;;;;;;;7.68;4.93;;;15.90;51.90;;;;;;6192075;23;20013;-88
2021/01/16 06:25:52;;;;;;;12.02;4.40;;;15.80;51.50;;;;;;6167807;23;20012;-83
2021/01/16 06:28:21;;;;;;;8.10;3.65;;;15.80;51.50;;;;;;6217871;23;20283;-83
2021/01/16 06:30:55;;;;;;;8.75;3.03;;;15.90;52.10;;;;;;6202556;23;20019;-80
2021/01/16 06:33:24;;;;;;;8.18;3.47;;;15.90;52.30;;;;;;6192490;23;20433;-81
2021/01/16 06:36:02;;;;;;;8.32;3.00;;;16.00;52.60;;;;;;6228772;23;20013;-83
2021/01/16 06:38:33;;;;;;;5.82;3.20;;;16.00;52.40;;;;;;6217474;23;20132;-82
2021/01/16 06:41:16;;;;;;;6.85;2.58;;;16.00;52.40;;;;;;6192434;23;20026;-84
2021/01/16 06:43:45;;;;;;;6.22;2.05;;;16.10;52.10;;;;;;6168309;23;20437;-83
2021/01/16 06:46:13;;;;;;;8.85;2.50;;;16.10;52.00;;;;;;6193115;23;20036;-83
2021/01/16 06:48:44;;;;;;;4.15;2.05;;;16.20;52.10;;;;;;6192103;23;20334;-82
2021/01/16 06:51:22;;;;;;;4.10;2.25;;;16.20;52.00;;;;;;6193292;23;20019;-83
2021/01/16 06:53:49;;;;;;;3.85;2.20;;;16.30;52.10;;;;;;6192232;23;20009;-83
2021/01/16 06:56:25;;;;;;;3.80;2.42;;;16.30;52.10;;;;;;6167583;23;20027;-82
2021/01/16 06:58:54;;;;;;;6.75;2.17;;;16.30;52.10;;;;;;6192323;23;20008;-82
2021/01/16 07:01:31;;;;;;;5.63;2.55;;;16.40;52.20;;;;;;6168036;23;20017;-84
2021/01/16 07:04:03;;;;;;;3.05;1.83;;;16.40;52.20;;;;;;6192559;23;20016;-82
2021/01/16 07:06:47;;;;;;;25.67;2.88;;;16.50;52.30;;;;;;6192664;23;20433;-82
2021/01/16 07:09:18;;;;;;;14.32;3.03;;;16.60;52.70;;;;;;6202409;23;20091;-83
2021/01/16 07:11:49;;;;;;;12.27;2.85;;;16.60;52.40;;;;;;6192107;23;20112;-82
2021/01/16 07:14:16;;;;;;;7.00;2.60;;;16.60;52.50;;;;;;6227151;23;20314;-83
2021/01/16 07:16:44;;;;;;;15.05;3.38;;;16.70;52.40;;;;;;6192424;23;20012;-79
2021/01/16 07:19:11;;;;;;;11.43;3.80;;;16.70;52.20;;;;;;6228237;23;20016;-78
2021/01/16 07:21:41;;;;;;;12.98;3.55;;;16.70;51.90;;;;;;6228461;23;20067;-79
2021/01/16 07:24:11;;;;;;;12.98;3.97;;;16.70;51.70;;;;;;6228029;23;20417;-78
2021/01/16 07:26:39;;;;;;;10.73;3.40;;;16.80;51.90;;;;;;6227492;23;20358;-80
2021/01/16 07:29:07;;;;;;;8.90;3.83;;;16.80;51.90;;;;;;6201992;23;20107;-82
2021/01/16 07:31:43;;;;;;;12.10;3.63;;;16.90;51.60;;;;;;6167261;23;20028;-82
2021/01/16 07:34:09;;;;;;;13.00;2.95;;;16.90;51.70;;;;;;6227743;23;20088;-82
2021/01/16 07:36:35;;;;;;;15.50;3.92;;;16.90;51.90;;;;;;6192581;23;20045;-83
2021/01/16 07:39:05;;;;;;;18.15;3.85;;;16.90;52.00;;;;;;6192324;23;20012;-82
2021/01/16 07:41:33;;;;;;;15.05;4.95;;;16.90;52.00;;;;;;6201824;23;20260;-83
2021/01/16 07:44:09;;;;;;;9.50;4.13;;;16.90;50.40;;;;;;6191947;23;20012;-83
2021/01/16 07:46:41;;;;;;;9.63;4.35;;;16.80;50.90;;;;;;6218401;23;20016;-83
2021/01/16 07:49:08;;;;;;;7.75;4.20;;;16.80;50.90;;;;;;6167179;23;20280;-83
2021/01/16 07:51:35;;;;;;;15.32;4.25;;;16.80;50.90;;;;;;6217630;23;20013;-83
2021/01/16 07:54:04;;;;;;;12.73;4.18;;;16.80;50.90;;;;;;6191852;23;20023;-82
2021/01/16 07:56:36;;;;;;;9.07;3.42;;;16.70;50.80;;;;;;6228077;23;20020;-82
2021/01/16 07:59:06;;;;;;;8.38;3.75;;;16.70;50.80;;;;;;6167781;23;20302;-83
2021/01/16 08:01:51;;;;;;;8.95;3.42;;;16.70;50.80;;;;;;6191647;23;20016;-82
2021/01/16 08:04:26;;;;;;;11.98;4.20;;;16.70;50.80;;;;;;6228419;23;20013;-82
2021/01/16 08:07:04;;;;;;;8.98;4.00;;;16.60;50.80;;;;;;6192283;23;20028;-83
2021/01/16 08:09:48;;;;;;;7.22;5.10;;;16.60;51.10;;;;;;6217188;23;20346;-85
2021/01/16 08:12:19;;;;;;;18.42;5.68;;;16.60;50.40;;;;;;6191884;23;20031;-82
2021/01/16 08:14:48;;;;;;;10.43;4.70;;;16.60;51.50;;;;;;6201842;23;20009;-81
2021/01/16 08:17:27;;;;;;;24.42;4.60;;;16.50;52.50;;;;;;6227956;23;20012;-82
2021/01/16 08:19:55;;;;;;;24.60;5.65;;;16.50;53.20;;;;;;6201573;23;20005;-84
2021/01/16 08:22:22;;;;;;;16.10;5.18;;;16.50;53.10;;;;;;6191967;23;20028;-84
2021/01/16 08:25:04;;;;;;;10.10;4.88;;;16.50;53.50;;;;;;6201682;23;20008;-85
2021/01/16 08:27:38;;;;;;;9.77;4.90;;;16.50;53.60;;;;;;6223249;23;20064;-81
2021/01/16 08:30:08;;;;;;;;;;;16.50;53.70;;;;;;6202221;23;20043;-78
2021/01/16 08:32:51;;;;;;;9.93;4.28;;;16.50;53.30;;;;;;6228030;23;19911;-81
2021/01/16 08:35:32;;;;;;;13.43;4.25;;;16.50;53.80;;;;;;6201559;23;20012;-82
2021/01/16 08:38:16;;;;;;;12.18;4.32;;;16.60;53.70;;;;;;6200931;23;20008;-82
2021/01/16 08:41:07;;;;;;;;;;;16.60;53.50;;;;;;6191775;23;20298;-85
2021/01/16 08:43:34;;;;;;;7.72;4.03;;;16.60;53.30;;;;;;6191308;23;19962;-82
2021/01/16 08:46:09;;;;;;;6.47;4.50;;;16.70;54.00;;;;;;6217823;23;20009;-83
2021/01/16 08:48:35;;;;;;;11.48;5.88;;;16.70;53.80;;;;;;6190668;23;20038;-83
2021/01/16 08:51:21;;;;;;;10.23;4.68;;;16.70;53.60;;;;;;6217456;23;20345;-78
2021/01/16 08:53:50;;;;;;;10.98;5.28;;;16.70;53.60;;;;;;6189759;23;20013;-82
2021/01/16 08:56:27;;;;;;;8.73;5.07;;;16.70;53.60;;;;;;6190723;23;20004;-86
2021/01/16 08:59:26;;;;;;;13.20;5.43;;;16.60;52.10;;;;;;6166701;23;20004;-86
2021/01/16 09:02:03;;;;;;;9.00;4.45;;;16.60;52.20;;;;;;6201046;23;20345;-83
2021/01/16 09:04:34;;;;;;;8.55;5.07;;;16.50;53.00;;;;;;6166293;23;20070;-81
2021/01/16 09:07:25;;;;;;;13.73;4.65;;;16.40;53.10;;;;;;6190476;23;20338;-82
2021/01/16 09:09:58;;;;;;;9.55;4.22;;;16.30;53.50;;;;;;6191205;23;20076;-82
2021/01/16 09:12:40;;;;;;;17.25;4.85;;;16.40;53.80;;;;;;6166152;23;20017;-81
2021/01/16 09:15:23;;;;;;;14.63;5.97;;;16.40;53.50;;;;;;6191037;23;20083;-82
2021/01/16 09:18:02;;;;;;;17.55;5.00;;;16.50;53.20;;;;;;6200929;23;20386;-81
2021/01/16 09:20:29;;;;;;;25.55;5.78;;;16.50;52.50;;;;;;6227062;23;20012;-82
2021/01/16 09:22:55;;;;;;;21.77;10.13;;;16.50;53.10;;;;;;6216792;23;20345;-82
2021/01/16 09:25:25;;;;;;;18.88;9.40;;;16.40;48.80;;;;;;6190872;23;20004;-83
2021/01/16 09:27:53;;;;;;;21.58;7.28;;;16.30;45.90;;;;;;6165945;23;20017;-85
2021/01/16 09:30:24;;;;;;;16.30;7.30;;;16.10;48.00;;;;;;6167246;23;20008;-84
2021/01/16 09:32:51;;;;;;;11.57;6.07;;;16.10;49.70;;;;;;6191673;23;20005;-82
2021/01/16 09:35:38;;;;;;;16.40;8.07;;;16.00;50.20;;;;;;6191303;23;20009;-84
2021/01/16 09:38:21;;;;;;;12.52;6.72;;;16.00;50.40;;;;;;6217271;23;20031;-82
2021/01/16 09:40:51;;;;;;;9.73;6.75;;;16.00;50.40;;;;;;6167456;23;20009;-83
2021/01/16 09:43:18;;;;;;;13.95;6.55;;;16.00;50.40;;;;;;6167024;23;20047;-85
2021/01/16 09:46:01;;;;;;;9.30;5.70;;;16.00;50.30;;;;;;6166484;23;20008;-82
2021/01/16 09:48:40;;;;;;;9.37;5.70;;;16.10;50.30;;;;;;6166788;23;20460;-84
2021/01/16 09:51:10;;;;;;;8.95;5.53;;;16.00;50.10;;;;;;6168036;23;20048;-83
2021/01/16 09:53:37;;;;;;;12.00;6.10;;;16.00;50.00;;;;;;6168281;23;20016;-82
2021/01/16 09:56:04;;;;;;;11.20;6.18;;;16.00;49.90;;;;;;6168968;23;20310;-83
2021/01/16 09:58:41;;;;;;;10.60;5.65;;;16.00;49.90;;;;;;6168761;23;20026;-83
2021/01/16 10:01:17;;;;;;;9.52;6.15;;;16.00;50.40;;;;;;6193119;23;20087;-84
2021/01/16 10:03:44;;;;;;;8.48;5.80;;;16.00;49.80;;;;;;6193304;23;20004;-84
2021/01/16 10:06:17;;;;;;;8.88;5.65;;;15.90;49.70;;;;;;6193693;23;20063;-84
2021/01/16 10:08:45;;;;;;;10.82;6.22;;;15.90;49.60;;;;;;6192617;23;20004;-82
2021/01/16 10:11:13;;;;;;;7.68;5.97;;;15.90;49.60;;;;;;6202959;23;20019;-83
2021/01/16 10:13:40;;;;;;;9.23;5.50;;;15.90;49.50;;;;;;6168228;23;20029;-82
2021/01/16 10:16:11;;;;;;;9.40;6.32;;;15.90;49.50;;;;;;6193126;23;20012;-83
2021/01/16 10:18:39;;;;;;;30.67;6.82;;;15.90;49.50;;;;;;6191726;23;20402;-84
2021/01/16 10:21:13;;;;;;;19.38;6.07;;;15.80;49.50;;;;;;6192189;23;20079;-83
2021/01/16 10:23:41;;;;;;;14.93;5.90;;;15.80;49.70;;;;;;6203149;23;20067;-83
2021/01/16 10:26:10;;;;;;;14.48;6.18;;;15.80;49.90;;;;;;6192782;23;20080;-82
2021/01/16 10:29:00;;;;;;;15.30;6.60;;;15.80;50.10;;;;;;6166945;23;20358;-84
2021/01/16 10:31:27;;;;;;;13.45;6.25;;;15.70;50.30;;;;;;6167300;23;20012;-85
2021/01/16 10:34:05;;;;;;;15.60;5.68;;;15.70;50.60;;;;;;6167705;23;20009;-84
2021/01/16 10:36:31;;;;;;;12.00;5.95;;;15.70;51.00;;;;;;6167670;23;20015;-83
2021/01/16 10:38:58;;;;;;;15.98;4.78;;;15.70;51.20;;;;;;6192518;23;20402;-82
2021/01/16 10:41:34;;;;;;;11.63;5.90;;;15.70;51.60;;;;;;6192941;23;20286;-84
2021/01/16 10:44:05;;;;;;;14.20;5.82;;;15.70;51.60;;;;;;6167433;23;20013;-84
2021/01/16 10:46:47;;;;;;;18.17;5.40;;;15.70;51.50;;;;;;6192432;23;20004;-83
2021/01/16 10:49:22;;;;;;;11.40;6.05;;;15.70;51.60;;;;;;6167440;23;20354;-82
2021/01/16 10:51:54;;;;;;;9.10;5.47;;;15.70;51.60;;;;;;6192678;23;20421;-83
2021/01/16 10:54:23;;;;;;;9.55;5.60;;;15.70;51.70;;;;;;6168239;23;20040;-83
2021/01/16 10:57:03;;;;;;;12.85;5.25;;;15.70;51.60;;;;;;6167502;23;20291;-81
2021/01/16 10:59:34;;;;;;;9.25;5.38;;;15.70;51.60;;;;;;6192753;23;20088;-83
2021/01/16 11:02:13;;;;;;;9.82;5.00;;;15.80;51.90;;;;;;6191945;23;20283;-80
2021/01/16 11:04:41;;;;;;;8.70;5.25;;;15.80;52.10;;;;;;6191886;23;20301;-85
2021/01/16 11:07:25;;;;;;;10.15;5.03;;;15.80;52.20;;;;;;6192132;23;20294;-83
2021/01/16 11:10:07;;;;;;;7.55;5.20;;;15.90;52.10;;;;;;6192658;23;20015;-82
2021/01/16 11:12:33;;;;;;;9.95;5.22;;;15.90;52.00;;;;;;6192866;23;20015;-82
2021/01/16 11:15:00;;;;;;;7.78;4.38;;;15.90;52.00;;;;;;6192571;23;20067;-82
2021/01/16 11:17:49;;;;;;;7.95;5.20;;;15.90;51.90;;;;;;6202389;23;20028;-83
2021/01/16 11:20:21;;;;;;;9.85;5.28;;;15.90;51.90;;;;;;6192080;23;20078;-82
2021/01/16 11:23:05;;;;;;;10.75;3.60;;;15.90;51.80;;;;;;6191992;23;20004;-80
2021/01/16 11:25:42;;;;;;;7.07;4.10;;;16.00;52.40;;;;;;6201938;23;20403;-81
2021/01/16 11:28:10;;;;;;;9.52;4.63;;;16.10;52.40;;;;;;6195101;23;20004;-81
2021/01/16 11:30:41;;;;;;;12.43;5.15;;;16.10;51.90;;;;;;6227955;23;20008;-81
2021/01/16 11:33:27;;;;;;;8.35;4.63;;;16.10;51.90;;;;;;6217922;23;20020;-83
2021/01/16 11:36:02;;;;;;;15.00;3.97;;;16.20;51.80;;;;;;6201791;23;20080;-81
2021/01/16 11:38:48;;;;;;;9.77;4.35;;;16.20;51.90;;;;;;6228343;23;20019;-81
2021/01/16 11:41:34;;;;;;;12.20;4.45;;;16.20;51.80;;;;;;6228160;23;20036;-82
2021/01/16 11:44:00;;;;;;;8.52;4.10;;;16.30;51.80;;;;;;6218719;23;20476;-80
2021/01/16 11:46:27;;;;;;;9.85;4.78;;;16.30;51.60;;;;;;6191632;23;20074;-81
2021/01/16 11:48:53;;;;;;;12.93;4.18;;;16.30;51.20;;;;;;6227762;23;20008;-83
2021/01/16 11:51:20;;;;;;;5.97;3.60;;;16.30;51.30;;;;;;6191704;23;20013;-83
2021/01/16 11:53:48;;;;;;;8.57;4.25;;;16.30;51.30;;;;;;6191622;23;20275;-83
2021/01/16 11:56:15;;;;;;;10.57;4.65;;;16.40;51.30;;;;;;6201650;23;20079;-83
2021/01/16 11:58:44;;;;;;;8.25;3.67;;;16.40;51.40;;;;;;6201408;23;20410;-84
2021/01/16 12:01:14;;;;;;;10.38;4.00;;;16.40;51.70;;;;;;6191500;23;20063;-83
2021/01/16 12:03:41;;;;;;;7.75;3.33;;;16.40;51.80;;;;;;6165952;23;20040;-82
2021/01/16 12:06:15;;;;;;;7.97;3.55;;;16.50;51.80;;;;;;6201087;23;20004;-82
2021/01/16 12:08:44;;;;;;;12.13;4.85;;;16.60;52.10;;;;;;6191826;23;20009;-81
2021/01/16 12:11:10;;;;;;;10.05;5.28;;;16.50;52.10;;;;;;6191750;23;20012;-82
2021/01/16 12:13:40;;;;;;;9.82;3.30;;;16.50;52.10;;;;;;6216595;23;20017;-85
2021/01/16 12:16:11;;;;;;;11.80;4.78;;;16.50;52.40;;;;;;6166449;23;20035;-83
2021/01/16 12:18:37;;;;;;;8.85;4.03;;;16.50;52.40;;;;;;6191111;23;20009;-83
2021/01/16 12:21:03;;;;;;;8.95;4.00;;;16.50;52.30;;;;;;6166764;23;20425;-83
2021/01/16 12:23:49;;;;;;;13.68;4.97;;;16.50;52.00;;;;;;6191661;23;20012;-85
2021/01/16 12:26:25;;;;;;;9.98;4.15;;;16.60;51.30;;;;;;6166886;23;20016;-84
2021/01/16 12:28:53;;;;;;;8.93;3.38;;;16.50;50.80;;;;;;6191279;23;20009;-83
2021/01/16 12:31:25;;;;;;;9.48;4.20;;;16.50;51.00;;;;;;6166576;23;20015;-84
2021/01/16 12:33:52;;;;;;;6.45;3.83;;;16.50;51.40;;;;;;6191550;23;20051;-84
2021/01/16 12:36:22;;;;;;;8.18;4.10;;;16.50;51.40;;;;;;6166545;23;20012;-83
2021/01/16 12:38:52;;;;;;;7.22;3.90;;;16.50;51.40;;;;;;6190995;23;20410;-83
2021/01/16 12:41:22;;;;;;;6.72;4.30;;;16.50;51.40;;;;;;6200861;23;20009;-83
2021/01/16 12:43:49;;;;;;;5.93;4.18;;;16.50;51.30;;;;;;6191240;23;20001;-83
2021/01/16 12:46:17;;;;;;;5.22;2.90;;;16.50;51.20;;;;;;6191087;23;20017;-85
2021/01/16 12:48:44;;;;;;;8.70;3.85;;;16.40;51.20;;;;;;6217848;23;20015;-83
2021/01/16 12:51:14;;;;;;;11.60;5.13;;;16.40;51.10;;;;;;6191156;23;20302;-85
2021/01/16 12:53:45;;;;;;;14.35;6.50;;;16.40;50.30;;;;;;6201306;23;20091;-85
2021/01/16 12:56:18;;;;;;;10.30;6.43;;;16.30;48.20;;;;;;6191523;23;20008;-82
2021/01/16 12:58:46;;;;;;;5.63;3.97;;;16.20;48.20;;;;;;6191765;23;20001;-82
2021/01/16 13:01:13;;;;;;;7.95;3.95;;;16.20;49.60;;;;;;6192061;23;20008;-82
2021/01/16 13:03:39;;;;;;;7.72;4.35;;;16.20;50.30;;;;;;6217261;23;20066;-80
2021/01/16 13:06:23;;;;;;;7.22;4.40;;;16.30;50.60;;;;;;6227350;23;20410;-84
2021/01/16 13:09:19;;;;;;;10.75;4.50;;;16.40;50.60;;;;;;6078875;23;20045;-81
2021/01/16 13:11:47;;;;;;;11.48;4.10;;;16.40;50.40;;;;;;6097497;23;20029;-80
2021/01/16 13:14:13;;;;;;;13.60;4.30;;;16.40;50.60;;;;;;6096976;23;20077;-82
2021/01/16 13:16:49;;;;;;;12.20;4.65;;;16.40;50.80;;;;;;6111164;23;20015;-83
2021/01/16 13:19:17;;;;;;;9.57;4.80;;;16.50;50.80;;;;;;6199952;23;20026;-84
2021/01/16 13:21:49;;;;;;;10.63;5.25;;;16.50;51.30;;;;;;6190659;23;20008;-84
2021/01/16 13:24:23;;;;;;;9.80;4.53;;;16.60;51.70;;;;;;6217616;23;20011;-78
2021/01/16 13:26:54;;;;;;;10.65;4.65;;;16.60;52.00;;;;;;6219252;23;20012;-83
2021/01/16 13:29:37;;;;;;;9.25;5.15;;;16.50;52.20;;;;;;6218603;23;20087;-85
2021/01/16 13:32:07;;;;;;;10.30;4.95;;;16.50;52.00;;;;;;6193192;23;20000;-86
2021/01/16 13:34:38;;;;;;;8.35;5.28;;;16.50;52.20;;;;;;6169004;23;20013;-81
2021/01/16 13:37:14;;;;;;;7.22;4.47;;;16.60;52.30;;;;;;6202643;23;20195;-82
2021/01/16 13:39:41;;;;;;;9.82;5.78;;;16.60;52.00;;;;;;6193438;23;20012;-81
2021/01/16 13:42:17;;;;;;;11.15;4.97;;;16.60;51.60;;;;;;6229127;23;20412;-83
2021/01/16 13:44:51;;;;;;;9.75;4.97;;;16.60;51.50;;;;;;6168052;23;20021;-81
2021/01/16 13:47:18;;;;;;;11.65;4.65;;;16.60;51.70;;;;;;6229628;23;20008;-82
2021/01/16 13:49:43;;;;;;;14.25;4.07;;;16.60;51.70;;;;;;6192930;23;20009;-82
2021/01/16 13:52:09;;;;;;;11.45;3.95;;;16.70;51.60;;;;;;6192961;23;20084;-79
2021/01/16 13:54:36;;;;;;;12.27;4.30;;;16.80;51.60;;;;;;6229079;23;20023;-82
2021/01/16 13:57:03;;;;;;;8.38;4.28;;;16.80;51.60;;;;;;6203270;23;20083;-82
2021/01/16 13:59:31;;;;;;;11.45;4.60;;;16.80;51.60;;;;;;6193299;23;20084;-83
2021/01/16 14:02:00;;;;;;;9.57;4.70;;;16.80;51.60;;;;;;6168064;23;20432;-82
2021/01/16 14:04:28;;;;;;;9.63;4.43;;;16.70;51.40;;;;;;6192962;23;20008;-83
2021/01/16 14:06:59;;;;;;;10.60;4.47;;;16.70;51.40;;;;;;6219116;23;20398;-83
2021/01/16 14:09:30;;;;;;;10.95;4.28;;;16.80;51.40;;;;;;6203132;23;20008;-82
2021/01/16 14:12:02;;;;;;;9.57;4.68;;;16.70;51.30;;;;;;6192979;23;20063;-82
2021/01/16 14:14:33;;;;;;;8.10;5.30;;;16.80;51.10;;;;;;6167412;23;20287;-83
2021/01/16 14:17:18;;;;;;;13.07;5.10;;;16.70;50.90;;;;;;6217612;23;20040;-83
2021/01/16 14:20:01;;;;;;;9.32;5.40;;;16.60;50.70;;;;;;6193126;23;20087;-81
2021/01/16 14:22:47;;;;;;;10.38;4.93;;;16.40;50.90;;;;;;6202484;23;20024;-83
2021/01/16 14:25:28;;;;;;;10.75;4.80;;;16.40;51.00;;;;;;6192695;23;20004;-83